createdAt,value
2019-04-22T00:01:30.774Z,60.20
2019-04-22T00:04:03.602Z,59.80
2019-04-22T00:06:53.138Z,59.80
2019-04-22T00:09:24.204Z,59.80
2019-04-22T00:11:59.298Z,59.70
2019-04-22T00:14:23.234Z,59.50
2019-04-22T00:17:11.679Z,60.10
2019-04-22T00:19:38.936Z,59.90
2019-04-22T00:22:13.920Z,60.10
2019-04-22T00:24:38.183Z,60.50
2019-04-22T00:27:17.196Z,60.80
2019-04-22T00:32:31.807Z,60.00
2019-04-22T00:35:06.022Z,60.00
2019-04-22T00:40:16.450Z,59.80
2019-04-22T00:42:41.540Z,59.60
2019-04-22T00:45:19.077Z,59.40
2019-04-22T00:47:43.611Z,59.10
2019-04-22T00:52:57.637Z,59.10
2019-04-22T00:55:29.898Z,59.80
2019-04-22T00:57:54.228Z,60.40
2019-04-22T01:00:18.355Z,60.90
2019-04-22T01:03:02.630Z,61.50
2019-04-22T01:05:34.395Z,62.00
2019-04-22T01:08:11.532Z,62.30
2019-04-22T01:10:42.090Z,62.20
2019-04-22T01:13:06.710Z,61.80
2019-04-22T01:15:45.082Z,62.00
2019-04-22T01:18:09.810Z,62.50
2019-04-22T01:21:00.655Z,62.50
2019-04-22T01:23:14.807Z,62.70
2019-04-22T01:25:44.047Z,63.00
2019-04-22T01:28:09.954Z,62.90
2019-04-22T01:30:36.171Z,62.90
2019-04-22T01:33:05.668Z,62.70
2019-04-22T01:35:39.774Z,62.50
2019-04-22T01:38:16.156Z,62.60
2019-04-22T01:41:04.465Z,61.80
2019-04-22T01:43:33.485Z,62.30
2019-04-22T01:46:02.636Z,61.90
2019-04-22T01:48:32.524Z,61.80
2019-04-22T01:51:00.952Z,61.80
2019-04-22T01:53:33.744Z,62.00
2019-04-22T01:56:09.909Z,61.80
2019-04-22T01:58:33.219Z,62.20
2019-04-22T02:01:08.897Z,62.10
2019-04-22T02:03:44.707Z,62.30
2019-04-22T02:06:17.269Z,61.80
2019-04-22T02:08:54.920Z,61.30
2019-04-22T02:11:16.789Z,61.40
2019-04-22T02:13:49.552Z,61.30
2019-04-22T02:16:21.457Z,61.60
2019-04-22T02:18:53.161Z,61.60
2019-04-22T02:21:20.512Z,61.90
2019-04-22T02:26:27.202Z,61.80
2019-04-22T02:28:55.205Z,62.10
2019-04-22T02:31:37.646Z,62.20
2019-04-22T02:41:41.614Z,61.70
2019-04-22T02:44:14.069Z,62.00
2019-04-22T02:46:53.309Z,62.00
2019-04-22T02:51:40.824Z,62.50
2019-04-22T02:56:48.624Z,62.20
2019-04-22T03:01:47.499Z,63.00
2019-04-22T03:04:22.829Z,63.00
2019-04-22T03:06:45.965Z,62.70
2019-04-22T03:09:28.507Z,63.10
2019-04-22T03:14:30.660Z,63.00
2019-04-22T03:17:03.077Z,63.00
2019-04-22T03:22:12.753Z,63.20
2019-04-22T03:27:19.705Z,63.40
2019-04-22T03:35:34.509Z,62.90
2019-04-22T03:37:49.338Z,63.10
2019-04-22T03:47:54.090Z,63.60
2019-04-22T03:52:59.137Z,63.00
2019-04-22T03:55:26.082Z,62.80
2019-04-22T04:00:41.707Z,62.90
2019-04-22T04:03:04.957Z,63.30
2019-04-22T04:08:12.668Z,63.50
2019-04-22T04:10:35.510Z,63.60
2019-04-22T04:13:12.229Z,64.20
2019-04-22T04:20:51.311Z,63.90
2019-04-22T04:23:31.468Z,64.00
2019-04-22T04:28:31.935Z,64.10
2019-04-22T04:30:42.839Z,63.80
2019-04-22T04:36:01.063Z,64.40
2019-04-22T04:38:34.138Z,64.40
2019-04-22T04:40:48.965Z,64.40
2019-04-22T04:43:27.246Z,64.50
2019-04-22T04:46:02.841Z,64.70
2019-04-22T04:48:36.966Z,64.70
2019-04-22T04:51:07.221Z,64.40
2019-04-22T04:53:41.517Z,63.90
2019-04-22T04:56:02.887Z,64.20
2019-04-22T04:58:47.846Z,64.40
2019-04-22T05:01:10.949Z,64.30
2019-04-22T05:03:49.322Z,64.00
2019-04-22T05:06:18.514Z,65.00
2019-04-22T05:09:04.764Z,64.70
2019-04-22T05:11:29.256Z,64.90
2019-04-22T05:18:50.622Z,66.10
2019-04-22T05:21:16.533Z,66.20
2019-04-22T05:23:55.091Z,66.20
2019-04-22T05:26:27.978Z,65.90
2019-04-22T05:28:57.613Z,66.50
2019-04-22T05:31:35.583Z,66.70
2019-04-22T05:34:04.521Z,66.40
2019-04-22T05:36:37.947Z,66.90
2019-04-22T05:39:00.171Z,66.90
2019-04-22T05:41:35.240Z,66.80
2019-04-22T05:44:12.488Z,66.80
2019-04-22T05:46:34.377Z,67.30
2019-04-22T05:49:14.994Z,67.20
2019-04-22T05:54:16.056Z,67.50
2019-04-22T05:59:19.934Z,67.20
2019-04-22T06:04:14.735Z,64.40
2019-04-22T06:06:51.804Z,65.00
2019-04-22T06:09:27.502Z,64.90
2019-04-22T06:11:46.731Z,62.60
2019-04-22T06:14:20.370Z,61.50
2019-04-22T06:16:58.724Z,61.10
2019-04-22T06:19:24.518Z,60.30
2019-04-22T06:21:57.389Z,60.30
2019-04-22T06:24:31.447Z,59.30
2019-04-22T06:27:10.275Z,59.90
2019-04-22T06:29:33.506Z,59.30
2019-04-22T06:32:32.557Z,58.80
2019-04-22T06:37:15.996Z,58.70
2019-04-22T06:39:40.169Z,59.10
2019-04-22T06:42:13.643Z,58.80
2019-04-22T06:44:49.718Z,58.60
2019-04-22T06:47:35.788Z,58.20
2019-04-22T06:49:52.593Z,58.20
2019-04-22T06:52:18.218Z,58.90
2019-04-22T06:54:54.989Z,59.20
2019-04-22T06:57:25.327Z,58.40
2019-04-22T06:59:58.828Z,58.40
2019-04-22T07:02:32.089Z,57.80
2019-04-22T07:05:02.918Z,57.00
2019-04-22T07:07:33.359Z,56.70
2019-04-22T07:10:07.311Z,56.70
2019-04-22T07:15:11.351Z,54.20
2019-04-22T07:17:47.650Z,54.30
2019-04-22T07:20:11.130Z,53.00
2019-04-22T07:22:40.179Z,52.30
2019-04-22T07:25:10.286Z,52.00
2019-04-22T07:27:40.704Z,51.60
2019-04-22T07:30:25.300Z,51.60
2019-04-22T07:33:04.531Z,51.80
2019-04-22T07:35:22.860Z,50.70
2019-04-22T07:38:04.673Z,50.50
2019-04-22T07:40:17.201Z,50.00
2019-04-22T07:42:54.004Z,49.40
2019-04-22T07:45:26.634Z,49.30
2019-04-22T07:48:02.620Z,50.20
2019-04-22T07:50:43.105Z,50.20
2019-04-22T07:52:56.524Z,49.70
2019-04-22T07:55:32.599Z,49.40
2019-04-22T07:58:10.358Z,48.30
2019-04-22T08:00:35.334Z,47.80
2019-04-22T08:03:14.044Z,47.10
2019-04-22T08:05:48.279Z,47.20
2019-04-22T08:08:19.446Z,46.60
2019-04-22T08:10:48.499Z,45.00
2019-04-22T08:13:16.981Z,45.10
2019-04-22T08:15:53.789Z,45.10
2019-04-22T08:18:22.087Z,45.00
2019-04-22T08:20:56.801Z,43.80
2019-04-22T08:23:24.556Z,44.40
2019-04-22T08:25:58.543Z,44.60
2019-04-22T08:28:30.366Z,43.70
2019-04-22T08:31:02.091Z,43.30
2019-04-22T08:33:38.208Z,43.90
2019-04-22T08:38:37.788Z,44.60
2019-04-22T08:41:23.004Z,43.70
2019-04-22T08:43:56.522Z,44.00
2019-04-22T08:46:24.115Z,44.50
2019-04-22T08:48:52.914Z,44.30
2019-04-22T08:56:33.726Z,43.60
2019-04-22T08:59:07.014Z,43.60
2019-04-22T09:01:39.193Z,43.40
2019-04-22T09:04:02.257Z,43.30
2019-04-22T09:09:06.449Z,42.40
2019-04-22T09:14:11.225Z,42.30
2019-04-22T09:16:37.750Z,42.80
2019-04-22T09:19:08.544Z,42.20
2019-04-22T09:21:37.779Z,42.80
2019-04-22T09:24:10.781Z,42.40
2019-04-22T09:26:43.606Z,42.50
2019-04-22T09:36:33.904Z,42.70
2019-04-22T09:38:58.606Z,42.40
2019-04-22T09:41:29.793Z,42.00
2019-04-22T09:43:58.325Z,42.00
2019-04-22T09:46:28.363Z,42.00
2019-04-22T09:51:32.564Z,41.90
2019-04-22T09:54:05.817Z,41.60
2019-04-22T09:56:37.425Z,41.50
2019-04-22T09:59:07.697Z,41.70
2019-04-22T10:01:48.244Z,41.60
2019-04-22T10:04:07.088Z,41.50
2019-04-22T10:06:36.629Z,41.40
2019-04-22T10:11:56.440Z,41.30
2019-04-22T10:14:21.884Z,41.70
2019-04-22T10:17:03.259Z,41.30
2019-04-22T10:19:18.402Z,40.90
2019-04-22T10:21:49.929Z,40.50
2019-04-22T10:24:21.082Z,40.10
2019-04-22T10:26:55.386Z,39.30
2019-04-22T10:29:24.643Z,39.80
2019-04-22T10:31:57.226Z,39.20
2019-04-22T10:34:14.015Z,39.80
2019-04-22T10:36:33.135Z,39.90
2019-04-22T10:39:04.207Z,38.80
2019-04-22T10:41:34.763Z,37.80
2019-04-22T10:44:05.476Z,38.90
2019-04-22T10:46:36.040Z,39.00
2019-04-22T10:49:06.419Z,38.40
2019-04-22T10:51:36.915Z,38.50
2019-04-22T10:54:07.405Z,38.80
2019-04-22T10:56:37.071Z,38.60
2019-04-22T10:59:06.854Z,38.50
2019-04-22T11:01:38.510Z,38.50
2019-04-22T11:04:09.192Z,37.70
2019-04-22T11:06:48.658Z,36.20
2019-04-22T11:09:12.369Z,36.70
2019-04-22T11:11:48.722Z,37.20
2019-04-22T11:14:14.742Z,38.20
2019-04-22T11:16:45.571Z,38.00
2019-04-22T11:19:17.608Z,37.20
2019-04-22T11:22:02.630Z,36.30
2019-04-22T11:24:19.076Z,36.90
2019-04-22T11:26:49.329Z,38.00
2019-04-22T11:29:21.355Z,38.70
2019-04-22T11:32:02.229Z,37.70
2019-04-22T11:34:33.375Z,37.30
2019-04-22T11:37:03.225Z,36.80
2019-04-22T11:39:36.429Z,36.80
2019-04-22T11:42:05.512Z,36.10
2019-04-22T11:44:35.371Z,33.80
2019-04-22T11:47:05.427Z,33.90
2019-04-22T11:49:36.191Z,34.80
2019-04-22T11:52:08.426Z,35.00
2019-04-22T11:54:40.952Z,33.50
2019-04-22T11:57:10.898Z,33.80
2019-04-22T11:59:40.797Z,34.40
2019-04-22T12:02:11.035Z,33.60
2019-04-22T12:04:43.674Z,33.60
2019-04-22T12:07:13.272Z,35.60
2019-04-22T12:09:43.659Z,35.30
2019-04-22T12:12:13.959Z,35.00
2019-04-22T12:14:43.500Z,35.10
2019-04-22T12:17:13.812Z,34.40
2019-04-22T12:19:44.253Z,33.80
2019-04-22T12:22:15.330Z,32.40
2019-04-22T12:24:46.062Z,31.70
2019-04-22T12:27:18.611Z,32.20
2019-04-22T12:29:48.943Z,32.60
2019-04-22T12:32:19.186Z,32.90
2019-04-22T12:34:49.362Z,34.80
2019-04-22T12:37:27.395Z,33.60
2019-04-22T12:39:53.066Z,34.40
2019-04-22T12:42:21.657Z,32.40
2019-04-22T12:44:51.241Z,33.40
2019-04-22T12:47:22.188Z,32.90
2019-04-22T12:49:57.224Z,33.80
2019-04-22T12:52:32.351Z,33.60
2019-04-22T12:54:55.397Z,32.90
2019-04-22T12:57:25.217Z,33.00
2019-04-22T12:59:55.426Z,33.30
2019-04-22T13:02:25.380Z,33.10
2019-04-22T13:04:56.348Z,33.00
2019-04-22T13:07:26.028Z,31.90
2019-04-22T13:09:57.007Z,32.10
2019-04-22T13:12:26.756Z,32.60
2019-04-22T13:14:57.201Z,31.60
2019-04-22T13:17:27.202Z,32.70
2019-04-22T13:20:00.378Z,32.00
2019-04-22T13:22:28.081Z,32.20
2019-04-22T13:25:02.058Z,31.50
2019-04-22T13:27:33.048Z,31.20
2019-04-22T13:30:08.266Z,31.50
2019-04-22T13:32:38.843Z,32.00
2019-04-22T13:35:10.763Z,32.00
2019-04-22T13:37:41.081Z,32.20
2019-04-22T13:40:10.972Z,31.70
2019-04-22T13:42:40.796Z,31.00
2019-04-22T13:45:11.623Z,31.30
2019-04-22T13:48:02.968Z,31.30
2019-04-22T13:53:30.399Z,30.10
2019-04-22T13:58:01.118Z,32.10
2019-04-22T14:00:22.496Z,31.80
2019-04-22T14:03:28.897Z,32.40
2019-04-22T14:06:00.904Z,30.70
2019-04-22T14:08:31.374Z,32.30
2019-04-22T14:11:12.937Z,33.50
2019-04-22T14:13:34.117Z,32.60
2019-04-22T14:16:04.753Z,32.00
2019-04-22T14:18:35.022Z,32.10
2019-04-22T14:21:05.071Z,32.20
2019-04-22T14:23:34.914Z,31.40
2019-04-22T14:26:05.192Z,31.80
2019-04-22T14:28:35.642Z,32.70
2019-04-22T14:31:10.497Z,33.00
2019-04-22T14:33:42.914Z,32.80
2019-04-22T14:36:11.718Z,32.60
2019-04-22T14:38:41.799Z,33.40
2019-04-22T14:41:30.544Z,33.00
2019-04-22T14:44:48.666Z,32.70
2019-04-22T14:46:39.204Z,32.90
2019-04-22T14:49:10.624Z,32.80
2019-04-22T14:51:39.206Z,33.30
2019-04-22T14:54:06.978Z,32.10
2019-04-22T14:56:22.452Z,32.00
2019-04-22T14:58:53.090Z,31.10
2019-04-22T15:01:24.641Z,29.50
2019-04-22T15:03:56.527Z,31.00
2019-04-22T15:06:31.811Z,30.40
2019-04-22T15:09:03.841Z,30.20
2019-04-22T15:11:45.935Z,30.30
2019-04-22T15:14:07.632Z,31.00
2019-04-22T15:16:57.222Z,31.20
2019-04-22T15:19:51.986Z,31.10
2019-04-22T15:22:22.754Z,31.00
2019-04-22T15:24:52.457Z,32.20
2019-04-22T15:27:22.590Z,31.30
2019-04-22T15:29:54.404Z,31.00
2019-04-22T15:32:25.318Z,31.10
2019-04-22T15:34:55.395Z,31.60
2019-04-22T15:37:26.444Z,31.70
2019-04-22T15:39:56.768Z,32.00
2019-04-22T15:42:30.534Z,33.20
2019-04-22T15:44:57.989Z,33.30
2019-04-22T15:47:29.250Z,33.20
2019-04-22T15:50:00.166Z,32.70
2019-04-22T15:52:36.536Z,32.20
2019-04-22T15:55:00.893Z,32.40
2019-04-22T15:57:30.800Z,32.70
2019-04-22T16:00:14.677Z,32.40
2019-04-22T16:02:31.920Z,32.20
2019-04-22T16:05:04.878Z,31.70
2019-04-22T16:07:36.053Z,31.50
2019-04-22T16:10:06.007Z,31.70
2019-04-22T16:12:44.082Z,31.60
2019-04-22T16:15:07.511Z,31.80
2019-04-22T16:17:37.912Z,32.00
2019-04-22T16:20:08.988Z,32.50
2019-04-22T16:22:57.149Z,31.50
2019-04-22T16:25:45.246Z,32.40
2019-04-22T16:28:15.441Z,32.10
2019-04-22T16:30:45.644Z,32.50
2019-04-22T16:33:15.316Z,32.80
2019-04-22T16:35:45.031Z,32.70
2019-04-22T16:38:15.113Z,32.30
2019-04-22T16:40:45.033Z,32.30
2019-04-22T16:43:14.521Z,32.80
2019-04-22T16:45:45.383Z,33.20
2019-04-22T16:48:15.824Z,33.10
2019-04-22T16:50:48.668Z,33.60
2019-04-22T16:53:17.131Z,33.40
2019-04-22T16:55:46.750Z,33.80
2019-04-22T16:58:16.747Z,34.10
2019-04-22T17:00:47.010Z,33.50
2019-04-22T17:03:42.804Z,35.00
2019-04-22T17:06:21.485Z,34.60
2019-04-22T17:08:57.003Z,34.80
2019-04-22T17:11:27.622Z,34.70
2019-04-22T17:13:57.340Z,35.10
2019-04-22T17:16:28.430Z,35.40
2019-04-22T17:19:02.419Z,35.90
2019-04-22T17:21:32.992Z,38.70
2019-04-22T17:24:05.494Z,40.70
2019-04-22T17:26:36.611Z,41.70
2019-04-22T17:29:06.618Z,44.40
2019-04-22T17:31:40.822Z,44.40
2019-04-22T17:34:09.593Z,43.40
2019-04-22T17:36:40.537Z,42.30
2019-04-22T17:39:25.896Z,41.30
2019-04-22T17:42:03.457Z,42.10
2019-04-22T17:44:43.943Z,42.50
2019-04-22T17:47:41.381Z,42.10
2019-04-22T17:50:21.501Z,40.80
2019-04-22T17:53:00.861Z,42.30
2019-04-22T17:55:19.578Z,42.60
2019-04-22T17:57:50.518Z,43.80
2019-04-22T18:00:20.382Z,44.00
2019-04-22T18:02:50.168Z,45.60
2019-04-22T18:05:11.632Z,45.60
2019-04-22T18:08:05.188Z,45.30
2019-04-22T18:10:36.211Z,45.70
2019-04-22T18:13:13.943Z,45.60
2019-04-22T18:15:45.043Z,43.80
2019-04-22T18:18:12.400Z,43.80
2019-04-22T18:20:42.291Z,45.30
2019-04-22T18:23:05.679Z,45.00
2019-04-22T18:25:45.102Z,46.00
2019-04-22T18:29:07.155Z,46.00
2019-04-22T18:31:35.344Z,46.50
2019-04-22T18:34:15.824Z,47.00
2019-04-22T18:36:54.120Z,48.00
2019-04-22T18:39:29.400Z,48.60
2019-04-22T18:41:58.651Z,48.90
2019-04-22T18:44:41.442Z,48.50
2019-04-22T18:47:09.909Z,49.20
2019-04-22T18:50:03.016Z,49.30
2019-04-22T18:53:17.110Z,49.70
2019-04-22T18:55:51.612Z,50.10
2019-04-22T18:58:27.513Z,51.70
2019-04-22T19:00:44.012Z,51.40
2019-04-22T19:03:18.196Z,52.60
2019-04-22T19:06:22.873Z,52.30
2019-04-22T19:08:36.967Z,51.70
2019-04-22T19:11:30.177Z,52.30
2019-04-22T19:14:02.327Z,52.60
2019-04-22T19:16:31.028Z,53.60
2019-04-22T19:19:17.199Z,53.20
2019-04-22T19:21:26.415Z,52.40
2019-04-22T19:23:59.987Z,52.90
2019-04-22T19:26:44.360Z,53.40
2019-04-22T19:29:05.827Z,53.20
2019-04-22T19:31:43.693Z,52.00
2019-04-22T19:34:31.707Z,53.60
2019-04-22T19:37:01.760Z,54.10
2019-04-22T19:39:34.204Z,52.60
2019-04-22T19:42:16.780Z,53.10
2019-04-22T19:44:43.887Z,53.50
2019-04-22T19:47:24.115Z,54.20
2019-04-22T19:49:52.528Z,54.20
2019-04-22T19:53:19.578Z,54.20
2019-04-22T19:55:47.039Z,54.50
2019-04-22T19:58:18.538Z,55.20
2019-04-22T20:01:16.211Z,54.40
2019-04-22T20:04:28.616Z,54.20
2019-04-22T20:06:59.338Z,53.20
2019-04-22T20:09:35.269Z,52.00
2019-04-22T20:12:04.342Z,51.80
2019-04-22T20:14:41.519Z,53.30
2019-04-22T20:17:09.683Z,52.80
2019-04-22T20:19:52.695Z,53.60
2019-04-22T20:22:17.548Z,53.80
2019-04-22T20:24:40.812Z,54.80
2019-04-22T20:27:28.513Z,55.00
2019-04-22T20:30:13.986Z,55.70
2019-04-22T20:32:26.416Z,56.10
2019-04-22T20:35:02.997Z,56.00
2019-04-22T20:37:35.472Z,56.40
2019-04-22T20:40:08.675Z,56.80
2019-04-22T20:42:46.724Z,56.50
2019-04-22T20:48:43.799Z,57.00
2019-04-22T20:51:12.717Z,56.70
2019-04-22T20:53:52.810Z,56.70
2019-04-22T20:56:16.047Z,55.70
2019-04-22T20:58:51.784Z,55.20
2019-04-22T21:01:16.147Z,55.40
2019-04-22T21:03:45.072Z,55.60
2019-04-22T21:06:22.763Z,55.70
2019-04-22T21:09:02.266Z,55.30
2019-04-22T21:11:29.691Z,55.50
2019-04-22T21:14:02.882Z,55.70
2019-04-22T21:16:40.153Z,55.70
2019-04-22T21:19:20.026Z,55.80
2019-04-22T21:29:04.385Z,57.10
2019-04-22T21:31:41.298Z,57.00
2019-04-22T21:34:08.021Z,56.80
2019-04-22T21:36:41.589Z,57.30
2019-04-22T21:39:12.578Z,57.80
2019-04-22T21:41:47.262Z,57.70
2019-04-22T21:44:14.195Z,57.60
2019-04-22T21:46:57.713Z,57.70
2019-04-22T21:49:27.976Z,58.40
2019-04-22T21:51:53.846Z,58.70
2019-04-22T21:54:28.343Z,58.50
2019-04-22T21:59:46.234Z,58.00
2019-04-22T22:02:39.236Z,57.80
2019-04-22T22:04:47.345Z,58.40
2019-04-22T22:07:12.947Z,59.10
2019-04-22T22:10:02.200Z,58.60
2019-04-22T22:12:37.848Z,59.00
2019-04-22T22:15:08.439Z,59.60
2019-04-22T22:17:35.579Z,58.30
2019-04-22T22:20:06.209Z,58.10
2019-04-22T22:25:14.414Z,58.90
2019-04-22T22:27:44.833Z,58.60
2019-04-22T22:30:38.825Z,58.90
2019-04-22T22:32:58.723Z,59.20
2019-04-22T22:35:24.521Z,60.00
2019-04-22T22:37:55.254Z,60.50
2019-04-22T22:40:19.896Z,60.40
2019-04-22T22:42:51.221Z,60.00
2019-04-22T22:45:32.607Z,60.10
2019-04-22T22:48:21.724Z,59.30
2019-04-22T22:50:44.346Z,58.80
2019-04-22T22:53:29.172Z,58.70
2019-04-22T22:55:52.083Z,59.40
2019-04-22T22:58:24.189Z,59.60
2019-04-22T23:00:53.574Z,59.90
2019-04-22T23:03:48.320Z,60.00
2019-04-22T23:06:03.164Z,59.70
2019-04-22T23:08:42.720Z,60.00
2019-04-22T23:11:25.936Z,59.90
2019-04-22T23:13:45.167Z,60.00
2019-04-22T23:16:04.978Z,60.30
2019-04-22T23:18:27.905Z,60.40
2019-04-22T23:20:59.680Z,60.00
2019-04-22T23:23:51.289Z,59.20
2019-04-22T23:26:48.529Z,58.50
2019-04-22T23:29:16.083Z,58.40
2019-04-22T23:31:44.158Z,58.80
2019-04-22T23:34:21.883Z,59.10
2019-04-22T23:37:21.824Z,59.00
2019-04-22T23:40:13.450Z,59.70
2019-04-22T23:42:33.240Z,60.20
2019-04-22T23:45:12.328Z,60.90
2019-04-22T23:47:35.639Z,60.70
2019-04-22T23:50:14.060Z,60.20
2019-04-22T23:52:53.360Z,60.30
2019-04-22T23:55:20.446Z,60.80
2019-04-22T23:57:56.760Z,61.30
